Time;durP1;ratioP1;P1;durP2;ratioP2;P2;SDS_P1;SDS_P2;PMS_P1;PMS_P2;Temp;Humidity;BMP_temperature;BMP_pressure;BME280_temperature;BME280_humidity;BME280_pressure;Samples;Min_cycle;Max_cycle;Signal;HPM_P1;HPM_P2
2021/03/31 00:01:28;;;;;;;98.70;55.45;;;307.40;1715.20;;;;;;5095559;28;20501;-75
2021/03/31 00:03:54;;;;;;;109.03;59.85;;;307.40;1715.20;;;;;;5094163;28;20052;-75
2021/03/31 00:06:20;;;;;;;112.90;62.50;;;307.50;1689.60;;;;;;5095669;28;20049;-75
2021/03/31 00:08:46;;;;;;;128.05;66.88;;;307.30;1689.60;;;;;;5095373;28;20425;-75
2021/03/31 00:11:12;;;;;;;137.40;72.97;;;307.30;1689.60;;;;;;5095358;28;20016;-75
2021/03/31 00:13:38;;;;;;;154.85;80.93;;;307.30;1715.20;;;;;;5095417;28;20047;-75
2021/03/31 00:16:04;;;;;;;155.80;82.07;;;307.30;1715.20;;;;;;5095159;28;20048;-75
2021/03/31 00:18:30;;;;;;;154.45;81.70;;;307.20;1715.20;;;;;;5095085;28;20047;-75
2021/03/31 00:20:56;;;;;;;152.05;79.25;;;307.20;1715.20;;;;;;5095065;28;20099;-75
2021/03/31 00:23:24;;;;;;;135.70;71.10;;;307.20;1715.20;;;;;;5095459;28;20059;-75
2021/03/31 00:25:50;;;;;;;126.97;66.13;;;307.20;1715.20;;;;;;5094920;28;20020;-74
2021/03/31 00:28:17;;;;;;;107.63;56.15;;;307.20;1689.60;;;;;;5093940;28;20135;-74
2021/03/31 00:30:43;;;;;;;92.38;51.88;;;307.20;1715.20;;;;;;5095152;28;20020;-75
2021/03/31 00:33:09;;;;;;;90.80;49.92;;;307.20;1689.60;;;;;;5094790;28;20074;-75
2021/03/31 00:35:35;;;;;;;77.32;43.70;;;307.40;1689.60;;;;;;5094928;28;20103;-75
2021/03/31 00:38:02;;;;;;;79.90;42.03;;;307.20;1689.60;;;;;;5093913;28;20035;-74
2021/03/31 00:40:34;;;;;;;69.60;38.13;;;282.50;1689.60;;;;;;5094700;28;20473;-75
2021/03/31 00:42:59;;;;;;;67.35;37.67;;;282.50;1664.00;;;;;;5094811;28;20028;-74
2021/03/31 00:45:25;;;;;;;67.15;37.33;;;282.50;1664.00;;;;;;5094725;28;20020;-75
2021/03/31 00:47:51;;;;;;;71.40;40.80;;;282.40;1689.60;;;;;;5094731;28;20382;-74
2021/03/31 00:50:19;;;;;;;76.55;40.95;;;282.40;1689.60;;;;;;5094673;28;20381;-74
2021/03/31 00:52:47;;;;;;;69.90;39.17;;;282.40;1689.60;;;;;;5094770;28;20129;-74
2021/03/31 00:55:14;;;;;;;69.00;39.72;;;282.40;1689.60;;;;;;5094569;28;20020;-74
2021/03/31 00:57:40;;;;;;;69.00;40.22;;;282.40;1689.60;;;;;;5094445;28;20052;-74
2021/03/31 01:00:08;;;;;;;63.80;39.55;;;282.50;1689.60;;;;;;5094586;28;20085;-74
2021/03/31 01:02:35;;;;;;;70.13;38.60;;;282.40;1689.60;;;;;;5093982;28;20024;-74
2021/03/31 01:05:01;;;;;;;72.15;42.50;;;282.50;1689.60;;;;;;5094569;28;20016;-74
2021/03/31 01:07:27;;;;;;;73.32;43.65;;;282.40;1689.60;;;;;;5093110;28;20427;-74
2021/03/31 01:09:54;;;;;;;79.90;46.60;;;282.50;1689.60;;;;;;5094256;28;20027;-74
2021/03/31 01:12:29;;;;;;;82.50;48.55;;;282.50;1689.60;;;;;;5094632;28;20020;-73
2021/03/31 01:15:27;;;;;;;80.95;48.70;;;282.50;1689.60;;;;;;5094419;28;20020;-74
2021/03/31 01:18:03;;;;;;;87.97;49.05;;;307.20;1715.20;;;;;;5011937;28;20042;-74
2021/03/31 01:20:38;;;;;;;83.68;49.95;;;307.20;1715.20;;;;;;5012256;28;20034;-74
2021/03/31 01:23:03;;;;;;;;;;;307.20;1715.20;;;;;;5012708;28;20046;-73
2021/03/31 01:25:32;;;;;;;79.47;46.40;;;307.20;1715.20;;;;;;5012125;28;19905;-73
2021/03/31 01:28:07;;;;;;;78.57;48.15;;;307.20;1715.20;;;;;;5012189;28;20100;-73
2021/03/31 01:31:09;;;;;;;83.80;47.33;;;307.20;1715.20;;;;;;5012009;28;20659;-73
2021/03/31 01:33:46;;;;;;;84.05;47.67;;;307.20;1715.20;;;;;;5012105;28;20148;-73
2021/03/31 01:36:16;;;;;;;87.28;45.40;;;307.20;1715.20;;;;;;5011896;28;20049;-74
2021/03/31 01:38:51;;;;;;;81.38;47.55;;;307.30;1715.20;;;;;;5011708;28;20076;-74
2021/03/31 01:41:18;;;;;;;75.45;46.30;;;307.30;1715.20;;;;;;5011902;28;20045;-73
2021/03/31 01:43:50;;;;;;;80.78;46.63;;;307.30;1715.20;;;;;;5011896;28;20436;-73
2021/03/31 01:46:18;;;;;;;75.70;45.00;;;307.30;1715.20;;;;;;5011958;28;20530;-73
2021/03/31 01:48:45;;;;;;;79.55;44.15;;;307.30;1715.20;;;;;;5011527;28;20053;-74
2021/03/31 01:51:12;;;;;;;76.38;45.75;;;307.40;1715.20;;;;;;5011876;28;20069;-73
2021/03/31 01:53:38;;;;;;;74.68;45.85;;;307.40;1715.20;;;;;;5033289;28;20032;-73
2021/03/31 01:56:05;;;;;;;75.40;45.58;;;307.40;1715.20;;;;;;5092513;28;20374;-74
2021/03/31 01:58:32;;;;;;;69.55;42.58;;;307.40;1715.20;;;;;;5093859;28;20032;-74
2021/03/31 02:00:59;;;;;;;74.80;43.55;;;307.40;1740.80;;;;;;5093488;28;20028;-74
2021/03/31 02:03:25;;;;;;;72.82;44.47;;;307.40;1740.80;;;;;;5093512;28;20102;-74
2021/03/31 02:05:55;;;;;;;77.85;42.85;;;307.40;1740.80;;;;;;5093784;28;20381;-74
2021/03/31 02:08:22;;;;;;;80.20;45.67;;;307.40;1740.80;;;;;;5093724;28;20058;-74
2021/03/31 02:10:50;;;;;;;74.72;44.67;;;307.30;1740.80;;;;;;5093553;28;20047;-74
2021/03/31 02:13:17;;;;;;;74.32;43.97;;;307.40;1740.80;;;;;;5093717;28;20073;-74
2021/03/31 02:15:45;;;;;;;87.53;45.65;;;307.30;1740.80;;;;;;5093683;28;20034;-74
2021/03/31 02:18:14;;;;;;;81.50;45.50;;;307.40;1740.80;;;;;;5093468;28;20035;-74
2021/03/31 02:20:40;;;;;;;77.72;46.95;;;307.40;1740.80;;;;;;5093455;28;20094;-74
2021/03/31 02:23:07;;;;;;;88.00;47.03;;;307.30;1740.80;;;;;;5093565;28;20028;-74
2021/03/31 02:25:34;;;;;;;77.32;46.53;;;307.30;1766.40;;;;;;5093671;28;20023;-73
2021/03/31 02:28:01;;;;;;;75.88;46.80;;;307.40;1740.80;;;;;;5093334;28;20477;-73
2021/03/31 02:30:28;;;;;;;73.50;45.13;;;307.30;1740.80;;;;;;5093067;28;20020;-73
2021/03/31 02:32:58;;;;;;;73.68;45.05;;;307.40;1740.80;;;;;;5093230;28;20024;-73
2021/03/31 02:35:24;;;;;;;75.68;45.78;;;307.40;1740.80;;;;;;5093443;28;20020;-74
2021/03/31 02:37:59;;;;;;;73.28;45.10;;;307.20;1740.80;;;;;;5093177;28;20044;-73
2021/03/31 02:40:27;;;;;;;75.82;44.38;;;307.40;1740.80;;;;;;5093412;28;20017;-73
2021/03/31 02:42:54;;;;;;;75.00;42.67;;;307.40;1740.80;;;;;;5093534;28;20031;-73
2021/03/31 02:45:23;;;;;;;76.82;46.65;;;307.40;1740.80;;;;;;5093470;28;20365;-74
2021/03/31 02:47:51;;;;;;;80.85;49.33;;;307.40;1740.80;;;;;;5093247;28;20162;-74
2021/03/31 02:50:20;;;;;;;84.00;50.35;;;307.40;1740.80;;;;;;5093039;28;20020;-74
2021/03/31 02:52:48;;;;;;;81.32;49.35;;;307.40;1715.20;;;;;;5093488;28;20028;-74
2021/03/31 02:55:15;;;;;;;83.03;50.35;;;307.30;1715.20;;;;;;5092785;28;20016;-74
2021/03/31 02:57:42;;;;;;;74.47;46.50;;;307.30;1715.20;;;;;;5093088;28;20355;-74
2021/03/31 03:00:10;;;;;;;76.90;44.75;;;307.40;1715.20;;;;;;5093325;28;20020;-74
2021/03/31 03:02:37;;;;;;;70.55;42.53;;;307.40;1715.20;;;;;;5096010;28;20024;-75
2021/03/31 03:05:05;;;;;;;73.93;43.67;;;307.40;1715.20;;;;;;5096653;28;20493;-74
2021/03/31 03:07:36;;;;;;;67.75;41.05;;;307.40;1715.20;;;;;;5096676;28;20028;-74
2021/03/31 03:10:03;;;;;;;61.80;37.75;;;307.40;1715.20;;;;;;5096520;28;20508;-73
2021/03/31 03:12:29;;;;;;;64.85;38.90;;;307.40;1715.20;;;;;;5096699;28;20469;-74
2021/03/31 03:14:55;;;;;;;70.82;42.38;;;307.40;1715.20;;;;;;5094916;28;20028;-74
2021/03/31 03:17:22;;;;;;;98.13;57.55;;;307.40;1715.20;;;;;;5096495;28;20035;-74
2021/03/31 03:19:48;;;;;;;113.60;65.57;;;307.40;1715.20;;;;;;5095018;28;20050;-74
2021/03/31 03:22:15;;;;;;;116.03;62.63;;;307.40;1715.20;;;;;;5096303;28;20049;-74
2021/03/31 03:24:46;;;;;;;120.72;65.35;;;307.40;1715.20;;;;;;5096969;28;20028;-74
2021/03/31 03:27:14;;;;;;;151.50;83.90;;;307.40;1715.20;;;;;;5096271;28;20020;-74
2021/03/31 03:29:45;;;;;;;139.45;73.60;;;307.30;1715.20;;;;;;5096109;28;20024;-74
2021/03/31 03:32:12;;;;;;;123.78;70.05;;;307.20;1715.20;;;;;;5096164;28;20081;-74
2021/03/31 03:34:38;;;;;;;108.88;63.58;;;307.20;1715.20;;;;;;5096048;28;20024;-74
2021/03/31 03:37:05;;;;;;;88.75;52.35;;;307.20;1715.20;;;;;;5095671;28;20063;-74
2021/03/31 03:39:31;;;;;;;89.22;51.92;;;307.20;1715.20;;;;;;5096211;28;20350;-74
2021/03/31 03:41:57;;;;;;;91.72;53.10;;;282.50;1689.60;;;;;;5096158;28;20078;-74
2021/03/31 03:44:23;;;;;;;88.22;51.35;;;307.20;1715.20;;;;;;5096060;28;20420;-74
2021/03/31 03:46:54;;;;;;;89.28;51.50;;;282.50;1689.60;;;;;;5095914;28;20103;-74
2021/03/31 03:49:21;;;;;;;80.40;47.97;;;282.50;1689.60;;;;;;5095833;28;20028;-74
2021/03/31 03:51:48;;;;;;;75.28;44.78;;;282.50;1689.60;;;;;;5095978;28;20028;-74
2021/03/31 03:54:13;;;;;;;75.72;46.10;;;282.50;1689.60;;;;;;5095689;28;20024;-74
2021/03/31 03:56:39;;;;;;;65.13;39.42;;;282.50;1689.60;;;;;;5095711;28;20392;-74
2021/03/31 03:59:21;;;;;;;59.92;35.85;;;282.50;1689.60;;;;;;5095927;28;20036;-74
2021/03/31 04:01:48;;;;;;;64.18;34.92;;;282.50;1689.60;;;;;;5095437;28;20050;-74
2021/03/31 04:04:14;;;;;;;48.72;30.02;;;282.50;1689.60;;;;;;5095779;28;20026;-74
2021/03/31 04:06:40;;;;;;;44.97;28.77;;;282.50;1689.60;;;;;;5095720;28;20098;-74
2021/03/31 04:09:06;;;;;;;46.88;27.80;;;282.50;1689.60;;;;;;5094326;28;20028;-72
2021/03/31 04:11:32;;;;;;;44.05;26.83;;;282.50;1689.60;;;;;;5095215;28;20481;-73
2021/03/31 04:14:03;;;;;;;43.90;26.52;;;282.50;1715.20;;;;;;5095329;28;20054;-73
2021/03/31 04:16:33;;;;;;;43.38;24.85;;;282.50;1689.60;;;;;;5095482;28;20085;-73
2021/03/31 04:19:29;;;;;;;40.35;24.75;;;282.40;1715.20;;;;;;5095426;28;20377;-74
2021/03/31 04:21:55;;;;;;;43.83;25.30;;;282.50;1689.60;;;;;;5013218;28;20527;-74
2021/03/31 04:24:21;;;;;;;44.88;26.00;;;282.50;1689.60;;;;;;5013228;28;20061;-74
2021/03/31 04:26:48;;;;;;;45.30;25.30;;;282.50;1689.60;;;;;;5013048;28;20458;-74
2021/03/31 04:29:14;;;;;;;45.88;25.70;;;282.50;1689.60;;;;;;5013033;28;20056;-73
2021/03/31 04:31:42;;;;;;;46.10;27.05;;;282.50;1689.60;;;;;;5012984;28;20103;-73
2021/03/31 04:34:08;;;;;;;41.33;26.05;;;282.50;1689.60;;;;;;5013068;28;20206;-73
2021/03/31 04:36:34;;;;;;;41.25;25.85;;;282.40;1689.60;;;;;;5012687;28;20057;-74
2021/03/31 04:39:04;;;;;;;44.75;26.17;;;282.40;1689.60;;;;;;5012882;28;20065;-74
2021/03/31 04:41:29;;;;;;;40.63;26.50;;;282.50;1689.60;;;;;;5012982;28;20419;-74
2021/03/31 04:43:55;;;;;;;37.25;25.65;;;282.50;1689.60;;;;;;5012690;28;20029;-74
2021/03/31 04:46:21;;;;;;;45.15;27.00;;;282.50;1689.60;;;;;;4996422;28;20441;-74
2021/03/31 04:48:46;;;;;;;42.90;26.67;;;282.50;1689.60;;;;;;5012913;28;20055;-73
2021/03/31 04:51:13;;;;;;;41.40;25.92;;;282.50;1689.60;;;;;;5012684;28;20543;-73
2021/03/31 04:53:38;;;;;;;42.80;24.27;;;307.20;1715.20;;;;;;5012398;28;20106;-73
2021/03/31 04:56:06;;;;;;;35.38;24.15;;;307.20;1689.60;;;;;;5012770;28;20238;-74
2021/03/31 04:58:32;;;;;;;41.15;23.55;;;307.20;1689.60;;;;;;5062487;28;20040;-74
2021/03/31 05:00:59;;;;;;;37.50;23.50;;;307.30;1689.60;;;;;;5094650;28;20024;-74
2021/03/31 05:03:26;;;;;;;37.20;22.77;;;307.30;1689.60;;;;;;5093101;28;20032;-74
2021/03/31 05:05:51;;;;;;;34.30;22.40;;;307.30;1689.60;;;;;;5094201;28;20045;-73
2021/03/31 05:08:17;;;;;;;38.17;21.77;;;307.40;1689.60;;;;;;5094433;28;20057;-74
2021/03/31 05:10:43;;;;;;;31.77;20.85;;;307.40;1664.00;;;;;;5093365;28;20028;-74
2021/03/31 05:13:08;;;;;;;41.95;22.50;;;307.40;1664.00;;;;;;5094400;28;20103;-73
2021/03/31 05:15:34;;;;;;;41.67;20.58;;;307.50;1664.00;;;;;;5094478;28;20020;-74
2021/03/31 05:18:00;;;;;;;40.85;22.48;;;307.50;1664.00;;;;;;5094259;28;20465;-74
2021/03/31 05:20:26;;;;;;;38.90;20.17;;;307.60;1664.00;;;;;;5094359;28;20077;-74
2021/03/31 05:22:52;;;;;;;33.63;20.80;;;307.70;1638.40;;;;;;5094110;28;20028;-74
2021/03/31 05:25:18;;;;;;;30.08;19.77;;;307.70;1638.40;;;;;;5093784;28;20097;-74
2021/03/31 05:27:44;;;;;;;37.00;21.75;;;307.70;1638.40;;;;;;5094287;28;20028;-74
2021/03/31 05:30:11;;;;;;;32.28;18.15;;;307.80;1638.40;;;;;;5094049;28;20033;-73
2021/03/31 05:32:37;;;;;;;34.20;20.15;;;307.90;1638.40;;;;;;5094265;28;20423;-74
2021/03/31 05:35:05;;;;;;;35.28;19.90;;;307.90;1612.80;;;;;;5094142;28;20024;-74
2021/03/31 05:37:31;;;;;;;32.38;20.42;;;307.90;1612.80;;;;;;5093832;28;20493;-74
2021/03/31 05:39:57;;;;;;;40.40;21.35;;;308.00;1612.80;;;;;;5094212;28;20032;-74
2021/03/31 05:42:23;;;;;;;33.03;19.85;;;308.00;1612.80;;;;;;5093966;28;20453;-73
2021/03/31 05:44:49;;;;;;;40.33;20.98;;;308.10;1587.20;;;;;;5094059;28;20021;-73
2021/03/31 05:47:19;;;;;;;40.35;23.52;;;332.80;1612.80;;;;;;5093806;28;20028;-74
2021/03/31 05:49:45;;;;;;;36.20;20.08;;;332.80;1612.80;;;;;;5093863;28;20028;-73
2021/03/31 05:52:11;;;;;;;30.10;19.85;;;332.90;1612.80;;;;;;5093495;28;20028;-73
2021/03/31 05:54:38;;;;;;;32.03;19.08;;;333.00;1612.80;;;;;;5093915;28;20032;-74
2021/03/31 05:57:07;;;;;;;35.33;21.50;;;333.00;1587.20;;;;;;5093755;28;20024;-74
2021/03/31 05:59:33;;;;;;;35.38;20.33;;;333.10;1587.20;;;;;;5093882;28;20028;-73
2021/03/31 06:01:59;;;;;;;35.40;20.48;;;333.20;1587.20;;;;;;5093807;28;20027;-74
2021/03/31 06:04:25;;;;;;;34.50;20.95;;;333.30;1587.20;;;;;;5093682;28;20024;-73
2021/03/31 06:06:51;;;;;;;30.13;19.27;;;333.30;1587.20;;;;;;5093487;28;20020;-74
2021/03/31 06:09:16;;;;;;;34.63;19.13;;;333.40;1587.20;;;;;;5093807;28;20465;-74
2021/03/31 06:11:55;;;;;;;33.42;19.30;;;333.50;1587.20;;;;;;5093699;28;20016;-74
2021/03/31 06:14:33;;;;;;;36.92;20.92;;;333.50;1587.20;;;;;;5093493;28;20020;-74
2021/03/31 06:17:11;;;;;;;37.70;22.50;;;333.60;1561.60;;;;;;5093585;28;20027;-74
2021/03/31 06:19:45;;;;;;;39.13;22.70;;;333.70;1561.60;;;;;;5093612;28;20035;-74
2021/03/31 06:22:32;;;;;;;37.80;22.40;;;358.40;1561.60;;;;;;5093388;28;20111;-74
2021/03/31 06:25:21;;;;;;;35.13;22.17;;;358.50;1561.60;;;;;;5093742;28;20028;-72
2021/03/31 06:27:54;;;;;;;30.05;20.65;;;358.60;1510.40;;;;;;5093054;28;20029;-74
2021/03/31 06:30:28;;;;;;;31.80;20.20;;;358.70;1510.40;;;;;;5093308;28;20024;-74
2021/03/31 06:32:55;;;;;;;29.33;17.80;;;358.80;1510.40;;;;;;5093451;28;20028;-74
2021/03/31 06:35:26;;;;;;;31.25;17.55;;;358.90;1510.40;;;;;;5093174;28;20059;-74
2021/03/31 06:38:04;;;;;;;25.33;17.05;;;359.00;1484.80;;;;;;5096869;28;20101;-74
2021/03/31 06:40:44;;;;;;;31.05;17.38;;;359.10;1484.80;;;;;;5097190;28;20050;-74
2021/03/31 06:43:44;;;;;;;27.10;17.13;;;359.20;1484.80;;;;;;5097029;28;20024;-73
2021/03/31 06:46:06;;;;;;;27.58;15.82;;;359.30;1459.20;;;;;;5096615;28;20061;-74
2021/03/31 06:48:34;;;;;;;30.73;16.38;;;384.00;1459.20;;;;;;5097008;28;20028;-74
2021/03/31 06:51:00;;;;;;;24.00;15.20;;;384.20;1459.20;;;;;;5097051;28;20052;-73
2021/03/31 06:53:30;;;;;;;20.08;14.93;;;384.30;1433.60;;;;;;5096958;28;20051;-73
2021/03/31 06:56:04;;;;;;;22.23;13.65;;;384.40;1433.60;;;;;;5097046;28;20044;-73
2021/03/31 06:58:31;;;;;;;29.50;13.90;;;384.50;1408.00;;;;;;5096943;28;20448;-73
2021/03/31 07:00:57;;;;;;;30.25;14.15;;;384.60;1408.00;;;;;;5096845;28;20458;-74
2021/03/31 07:03:23;;;;;;;24.30;13.85;;;384.70;1408.00;;;;;;5096300;28;20028;-73
2021/03/31 07:05:49;;;;;;;28.45;14.05;;;384.80;1382.40;;;;;;5093417;28;20025;-75
2021/03/31 07:08:17;;;;;;;25.02;14.48;;;384.90;1408.00;;;;;;5095751;28;20031;-73
2021/03/31 07:10:53;;;;;;;34.70;14.93;;;409.60;1408.00;;;;;;5095742;28;20023;-72
2021/03/31 07:13:29;;;;;;;34.50;14.68;;;409.60;1408.00;;;;;;5095245;28;20103;-72
2021/03/31 07:15:56;;;;;;;25.48;13.80;;;409.70;1382.40;;;;;;5095613;28;20012;-71
2021/03/31 07:18:22;;;;;;;25.35;14.93;;;409.80;1382.40;;;;;;5095541;28;20105;-72
2021/03/31 07:20:49;;;;;;;30.10;14.70;;;409.80;1382.40;;;;;;5093275;28;20028;-72
2021/03/31 07:23:15;;;;;;;24.25;14.27;;;410.00;1356.80;;;;;;5095096;28;20024;-71
2021/03/31 07:25:41;;;;;;;23.60;14.75;;;410.00;1356.80;;;;;;5092048;28;20032;-71
2021/03/31 07:28:08;;;;;;;20.10;14.07;;;410.10;1356.80;;;;;;5093616;28;20020;-70
2021/03/31 07:30:35;;;;;;;23.88;14.40;;;410.20;1356.80;;;;;;5095368;28;20024;-71
2021/03/31 07:33:04;;;;;;;28.48;17.00;;;410.30;1356.80;;;;;;5092505;28;20028;-71
2021/03/31 07:35:35;;;;;;;21.23;15.15;;;410.50;1356.80;;;;;;5093503;28;20097;-71
2021/03/31 07:38:04;;;;;;;21.48;13.60;;;435.20;1331.20;;;;;;5093836;28;20044;-71
2021/03/31 07:40:32;;;;;;;24.35;13.15;;;435.40;1331.20;;;;;;5094378;28;20024;-72
2021/03/31 07:43:17;;;;;;;20.33;12.18;;;435.60;1305.60;;;;;;5092280;28;20380;-71
2021/03/31 07:45:48;;;;;;;18.35;13.25;;;435.80;1305.60;;;;;;5092184;28;20028;-71
2021/03/31 07:48:15;;;;;;;18.75;12.05;;;435.90;1280.00;;;;;;5094476;28;20027;-72
2021/03/31 07:50:42;;;;;;;20.15;13.23;;;436.10;1280.00;;;;;;5094930;28;20043;-71
2021/03/31 07:53:08;;;;;;;22.40;13.25;;;460.90;1305.60;;;;;;5095138;28;20032;-72
2021/03/31 07:55:36;;;;;;;21.60;12.75;;;461.10;1280.00;;;;;;5094989;28;20027;-72
2021/03/31 07:58:16;;;;;;;19.13;11.32;;;461.30;1254.40;;;;;;5094721;28;20052;-71
2021/03/31 08:00:45;;;;;;;17.30;10.95;;;461.50;1228.80;;;;;;5094871;28;20102;-71
2021/03/31 08:03:15;;;;;;;15.13;9.68;;;461.70;1203.20;;;;;;5094676;28;20028;-72
2021/03/31 08:06:13;;;;;;;15.30;10.05;;;486.50;1177.60;;;;;;5094382;28;20024;-69
2021/03/31 08:08:45;;;;;;;20.58;10.10;;;486.70;1152.00;;;;;;5094778;28;20020;-71
2021/03/31 08:11:37;;;;;;;18.08;10.25;;;486.80;1152.00;;;;;;5093390;28;20067;-71
2021/03/31 08:14:04;;;;;;;12.70;9.02;;;487.00;1100.80;;;;;;5094447;28;20039;-71
2021/03/31 08:16:34;;;;;;;15.10;8.82;;;487.10;1126.40;;;;;;5093234;28;20028;-72
2021/03/31 08:19:02;;;;;;;16.70;9.25;;;487.20;1100.80;;;;;;5093240;28;20115;-71
2021/03/31 08:21:30;;;;;;;12.40;8.98;;;512.00;1100.80;;;;;;5094114;28;20073;-71
2021/03/31 08:23:57;;;;;;;16.08;8.85;;;512.10;1100.80;;;;;;5094565;28;20077;-72
2021/03/31 08:27:06;;;;;;;17.40;9.70;;;512.20;1075.20;;;;;;5094638;28;20027;-70
2021/03/31 08:29:32;;;;;;;12.27;9.20;;;512.30;1049.60;;;;;;5031833;28;20038;-71
2021/03/31 08:32:03;;;;;;;11.20;8.63;;;512.50;1024.00;;;;;;5031892;28;20108;-70
2021/03/31 08:34:31;;;;;;;15.13;8.55;;;512.60;1049.60;;;;;;5014474;28;20156;-72
2021/03/31 08:36:59;;;;;;;14.93;9.43;;;512.80;1049.60;;;;;;5030934;28;20449;-72
2021/03/31 08:39:25;;;;;;;12.20;8.07;;;512.90;998.40;;;;;;5031237;28;20025;-71
2021/03/31 08:41:53;;;;;;;11.85;8.48;;;537.60;1049.60;;;;;;5031018;28;20021;-71
2021/03/31 08:44:27;;;;;;;12.05;8.23;;;537.70;1049.60;;;;;;5025716;28;20112;-72
2021/03/31 08:46:54;;;;;;;11.88;8.23;;;537.80;1049.60;;;;;;5031302;28;20091;-71
2021/03/31 08:49:24;;;;;;;15.95;8.93;;;538.00;1024.00;;;;;;5030978;28;20029;-72
2021/03/31 08:51:52;;;;;;;24.58;9.02;;;538.10;1024.00;;;;;;5030888;28;20056;-71
2021/03/31 08:54:38;;;;;;;33.83;10.57;;;538.10;998.40;;;;;;5032043;28;20605;-73
2021/03/31 08:57:07;;;;;;;35.88;10.25;;;538.20;972.80;;;;;;5032516;28;20104;-72
2021/03/31 08:59:35;;;;;;;850.88;81.57;;;538.30;972.80;;;;;;5029940;28;20109;-72
2021/03/31 09:02:01;;;;;;;275.33;23.67;;;538.30;947.20;;;;;;5030703;28;20363;-71
2021/03/31 09:04:27;;;;;;;59.65;10.85;;;538.30;972.80;;;;;;5030676;28;20106;-71
2021/03/31 09:06:54;;;;;;;35.65;9.98;;;538.30;947.20;;;;;;5086813;28;20104;-72
2021/03/31 09:09:20;;;;;;;14.25;8.50;;;538.50;947.20;;;;;;5091359;28;20024;-71
2021/03/31 09:11:46;;;;;;;13.50;8.40;;;563.20;972.80;;;;;;5094213;28;20047;-72
2021/03/31 09:14:23;;;;;;;9.55;7.70;;;563.20;921.60;;;;;;5094497;28;20461;-72
2021/03/31 09:16:56;;;;;;;18.48;8.88;;;563.30;921.60;;;;;;5094472;28;20103;-72
2021/03/31 09:19:24;;;;;;;13.68;8.18;;;563.40;947.20;;;;;;5094337;28;20354;-72
2021/03/31 09:21:51;;;;;;;12.07;7.70;;;563.40;947.20;;;;;;5093950;28;20046;-72
2021/03/31 09:24:19;;;;;;;54.42;10.95;;;563.40;947.20;;;;;;5093037;28;20028;-72
2021/03/31 09:27:01;;;;;;;15.40;9.05;;;563.50;921.60;;;;;;5094297;28;20469;-72
2021/03/31 09:29:27;;;;;;;11.57;7.63;;;563.60;947.20;;;;;;5093945;28;20472;-72
2021/03/31 09:31:54;;;;;;;12.52;8.05;;;563.70;921.60;;;;;;5094119;28;20016;-72
2021/03/31 09:34:20;;;;;;;15.27;7.68;;;563.70;921.60;;;;;;5093289;28;20102;-71
2021/03/31 09:36:57;;;;;;;12.98;8.07;;;563.70;921.60;;;;;;5092833;28;20051;-72
2021/03/31 09:39:47;;;;;;;14.57;7.50;;;563.70;921.60;;;;;;5093503;28;20146;-72
2021/03/31 09:42:32;;;;;;;10.77;7.88;;;563.80;921.60;;;;;;5091904;28;20492;-72
2021/03/31 09:44:58;;;;;;;13.85;8.07;;;563.80;947.20;;;;;;5092614;28;20481;-72
2021/03/31 09:47:27;;;;;;;12.98;7.55;;;563.80;947.20;;;;;;5093992;28;20039;-72
2021/03/31 09:49:53;;;;;;;14.82;8.55;;;563.90;921.60;;;;;;5094017;28;20024;-72
2021/03/31 09:52:30;;;;;;;15.73;8.10;;;564.00;921.60;;;;;;5092580;28;20085;-72
2021/03/31 09:55:22;;;;;;;14.05;8.13;;;564.00;896.00;;;;;;5093797;28;20024;-72
2021/03/31 09:57:50;;;;;;;10.80;7.13;;;564.00;896.00;;;;;;5090405;28;20044;-72
2021/03/31 10:00:17;;;;;;;14.30;6.90;;;564.00;921.60;;;;;;5093901;28;20028;-72
2021/03/31 10:02:44;;;;;;;14.15;7.82;;;564.10;921.60;;;;;;5091400;28;20432;-72
2021/03/31 10:05:16;;;;;;;13.65;8.77;;;564.10;921.60;;;;;;5093171;28;20012;-72
2021/03/31 10:07:53;;;;;;;13.00;7.30;;;564.10;921.60;;;;;;5092414;28;20028;-72
2021/03/31 10:10:19;;;;;;;12.77;7.43;;;564.10;896.00;;;;;;5094719;28;20024;-72
2021/03/31 10:12:44;;;;;;;11.43;7.53;;;588.80;896.00;;;;;;5097132;28;20374;-72
2021/03/31 10:15:11;;;;;;;9.90;7.30;;;588.80;896.00;;;;;;5097753;28;20371;-72
2021/03/31 10:17:37;;;;;;;13.60;8.32;;;564.10;896.00;;;;;;5097757;28;20028;-72
2021/03/31 10:20:07;;;;;;;62.20;10.57;;;588.80;896.00;;;;;;5097677;28;20051;-72
2021/03/31 10:22:32;;;;;;;33.47;9.55;;;588.80;921.60;;;;;;5097035;28;20385;-71
2021/03/31 10:24:58;;;;;;;18.35;8.00;;;588.80;921.60;;;;;;5094009;28;20040;-72
2021/03/31 10:27:42;;;;;;;13.60;7.78;;;588.80;921.60;;;;;;5095278;28;20416;-71
2021/03/31 10:30:22;;;;;;;24.77;9.32;;;588.80;896.00;;;;;;5096533;28;20466;-68
2021/03/31 10:32:48;;;;;;;19.27;9.73;;;588.80;972.80;;;;;;5095176;28;20036;-69
2021/03/31 10:35:13;;;;;;;14.70;7.32;;;588.80;1024.00;;;;;;5096396;28;20020;-69
2021/03/31 10:37:46;;;;;;;20.70;7.93;;;588.80;972.80;;;;;;5095554;28;20101;-73
2021/03/31 10:54:00;;;;;;;12.98;7.13;;;589.00;921.60;;;;;;5095013;28;20077;-74
2021/03/31 10:56:26;;;;;;;9.02;6.43;;;589.00;921.60;;;;;;5094744;28;20024;-73
2021/03/31 10:58:51;;;;;;;9.95;6.40;;;589.00;921.60;;;;;;5095059;28;20035;-73
2021/03/31 11:01:17;;;;;;;12.68;7.10;;;589.00;921.60;;;;;;5096217;28;20028;-72
2021/03/31 11:03:43;;;;;;;12.73;6.38;;;589.00;921.60;;;;;;5094674;28;20078;-74
2021/03/31 11:06:09;;;;;;;7.90;6.50;;;589.10;921.60;;;;;;5096110;28;20104;-74
2021/03/31 11:08:35;;;;;;;12.07;6.63;;;589.10;921.60;;;;;;5095238;28;20119;-74
2021/03/31 11:11:01;;;;;;;9.77;6.65;;;589.20;896.00;;;;;;5095897;28;20058;-74
2021/03/31 11:13:26;;;;;;;10.48;6.28;;;589.20;896.00;;;;;;5094329;28;20040;-74
2021/03/31 11:15:54;;;;;;;7.53;5.63;;;589.30;896.00;;;;;;5096189;28;20052;-74
2021/03/31 11:26:06;;;;;;;7.43;5.32;;;589.50;896.00;;;;;;5095660;28;20027;-74
2021/03/31 11:28:31;;;;;;;8.13;5.32;;;589.50;896.00;;;;;;5095720;28;20358;-74
2021/03/31 11:30:57;;;;;;;10.55;5.72;;;589.60;896.00;;;;;;5095690;28;20039;-74
2021/03/31 11:33:25;;;;;;;11.18;6.05;;;589.60;896.00;;;;;;5095609;28;20024;-74
2021/03/31 11:35:51;;;;;;;6.60;5.38;;;589.60;870.40;;;;;;5095530;28;20074;-73
2021/03/31 11:38:17;;;;;;;9.95;5.25;;;614.40;896.00;;;;;;5095308;28;20035;-74
2021/03/31 11:40:43;;;;;;;9.57;4.38;;;614.40;896.00;;;;;;5095339;28;20028;-74
2021/03/31 11:43:11;;;;;;;7.97;5.13;;;589.70;896.00;;;;;;5095111;28;20024;-73
2021/03/31 11:45:37;;;;;;;10.90;5.40;;;614.40;896.00;;;;;;5095299;28;20016;-74
2021/03/31 11:48:04;;;;;;;8.50;5.25;;;614.40;896.00;;;;;;5094638;28;20031;-73
2021/03/31 11:50:30;;;;;;;8.40;4.78;;;614.40;896.00;;;;;;5095370;28;20389;-73
2021/03/31 11:52:56;;;;;;;7.15;4.03;;;614.40;896.00;;;;;;5095308;28;20028;-74
2021/03/31 11:55:22;;;;;;;8.85;4.85;;;614.40;896.00;;;;;;5094746;28;20024;-74
2021/03/31 11:57:48;;;;;;;8.73;3.90;;;614.40;896.00;;;;;;5094654;28;20043;-74
2021/03/31 12:00:15;;;;;;;7.82;5.15;;;614.40;896.00;;;;;;5094977;28;20031;-74
2021/03/31 12:02:41;;;;;;;5.32;4.68;;;614.40;896.00;;;;;;5094889;28;20031;-73
2021/03/31 12:05:07;;;;;;;6.07;4.63;;;614.40;921.60;;;;;;5093261;28;20024;-75
2021/03/31 12:07:33;;;;;;;6.90;4.68;;;614.40;896.00;;;;;;5094855;28;20024;-74
2021/03/31 12:10:01;;;;;;;8.45;4.70;;;614.40;896.00;;;;;;5093624;28;20401;-75
2021/03/31 12:12:26;;;;;;;10.98;6.45;;;614.40;921.60;;;;;;5093920;28;20066;-74
2021/03/31 12:14:52;;;;;;;10.23;5.07;;;614.40;921.60;;;;;;5094435;28;20426;-74
2021/03/31 12:17:18;;;;;;;8.55;4.63;;;614.40;921.60;;;;;;5094512;28;20039;-74
2021/03/31 12:19:44;;;;;;;12.38;5.10;;;589.70;896.00;;;;;;5094737;28;20024;-73
2021/03/31 12:22:09;;;;;;;6.10;4.20;;;589.70;896.00;;;;;;5094645;28;20094;-73
2021/03/31 12:24:35;;;;;;;11.75;4.60;;;589.70;896.00;;;;;;5094662;28;20113;-73
2021/03/31 12:27:05;;;;;;;5.55;3.97;;;614.40;921.60;;;;;;5093391;28;20123;-73
2021/03/31 12:29:31;;;;;;;7.55;4.60;;;614.40;921.60;;;;;;5095533;28;20807;-74
2021/03/31 12:31:58;;;;;;;93.40;7.55;;;614.40;921.60;;;;;;5093074;28;20032;-74
2021/03/31 12:34:26;;;;;;;23.33;5.40;;;614.40;921.60;;;;;;5094484;28;20024;-75
2021/03/31 12:36:52;;;;;;;13.95;4.55;;;614.40;921.60;;;;;;5094611;28;20036;-74